createdAt,value
2017-12-02T00:02:19.048Z,2.00
2017-12-02T00:04:47.447Z,2.03
2017-12-02T00:07:15.537Z,2.06
2017-12-02T00:09:42.990Z,2.10
2017-12-02T00:12:11.288Z,2.12
2017-12-02T00:14:38.738Z,2.13
2017-12-02T00:17:06.287Z,2.12
2017-12-02T00:19:35.116Z,2.09
2017-12-02T00:22:02.810Z,2.08
2017-12-02T00:24:34.880Z,2.06
2017-12-02T00:27:02.431Z,2.02
2017-12-02T00:29:30.072Z,2.04
2017-12-02T00:32:00.100Z,2.03
2017-12-02T00:34:27.745Z,2.05
2017-12-02T00:36:55.814Z,2.02
2017-12-02T00:39:23.318Z,1.98
2017-12-02T00:41:51.736Z,1.93
2017-12-02T00:44:19.210Z,1.92
2017-12-02T00:46:46.796Z,1.87
2017-12-02T00:49:15.137Z,1.88
2017-12-02T00:51:43.374Z,1.89
2017-12-02T00:54:11.752Z,1.92
2017-12-02T00:56:41.335Z,1.89
2017-12-02T00:59:10.703Z,1.88
2017-12-02T01:01:38.330Z,1.88
2017-12-02T01:04:06.085Z,1.90
2017-12-02T01:06:33.790Z,1.91
2017-12-02T01:09:07.217Z,1.95
2017-12-02T01:11:34.711Z,2.02
2017-12-02T01:14:02.274Z,2.06
2017-12-02T01:16:30.008Z,1.99
2017-12-02T01:18:57.967Z,1.93
2017-12-02T01:21:25.459Z,1.93
2017-12-02T01:23:52.918Z,1.91
2017-12-02T01:26:20.462Z,1.93
2017-12-02T01:28:48.205Z,1.97
2017-12-02T01:31:15.724Z,2.00
2017-12-02T01:33:43.292Z,2.00
2017-12-02T01:36:10.973Z,2.02
2017-12-02T01:38:38.467Z,2.03
2017-12-02T01:41:07.609Z,2.03
2017-12-02T01:43:35.082Z,2.03
2017-12-02T01:46:02.561Z,2.05
2017-12-02T01:48:30.427Z,2.07
2017-12-02T01:50:57.950Z,2.10
2017-12-02T01:53:25.553Z,2.13
2017-12-02T01:55:53.143Z,2.15
2017-12-02T01:58:20.643Z,2.19
2017-12-02T02:00:48.222Z,2.23
2017-12-02T02:03:15.701Z,2.24
2017-12-02T02:05:43.377Z,2.27
2017-12-02T02:08:15.936Z,2.24
2017-12-02T02:10:43.379Z,2.23
2017-12-02T02:13:10.861Z,2.20
2017-12-02T02:15:38.384Z,2.15
2017-12-02T02:18:05.855Z,2.11
2017-12-02T02:20:33.437Z,2.09
2017-12-02T02:23:00.928Z,2.06
2017-12-02T02:25:28.449Z,2.04
2017-12-02T02:28:06.124Z,2.05
2017-12-02T02:30:33.727Z,2.01
2017-12-02T02:33:01.265Z,2.02
2017-12-02T02:35:28.750Z,2.02
2017-12-02T02:38:10.721Z,2.03
2017-12-02T02:40:38.151Z,2.05
2017-12-02T02:43:05.674Z,2.05
2017-12-02T02:45:33.175Z,2.03
2017-12-02T02:48:20.143Z,2.06
2017-12-02T02:50:47.768Z,2.07
2017-12-02T02:53:16.306Z,2.07
2017-12-02T02:55:43.898Z,2.11
2017-12-02T02:58:11.656Z,2.12
2017-12-02T03:00:39.178Z,2.14
2017-12-02T03:03:06.689Z,2.15
2017-12-02T03:05:34.233Z,2.18
2017-12-02T03:10:54.312Z,2.17
2017-12-02T03:13:22.146Z,2.17
2017-12-02T03:15:50.003Z,2.18
2017-12-02T03:18:19.204Z,2.22
2017-12-02T03:20:47.885Z,2.23
2017-12-02T03:23:16.031Z,2.26
2017-12-02T03:25:44.115Z,2.26
2017-12-02T03:28:11.684Z,2.27
2017-12-02T03:30:39.451Z,2.22
2017-12-02T03:33:07.084Z,2.22
2017-12-02T03:35:34.847Z,2.19
2017-12-02T03:38:03.847Z,2.17
2017-12-02T03:40:32.897Z,2.16
2017-12-02T03:43:01.645Z,2.17
2017-12-02T03:45:30.005Z,2.16
2017-12-02T03:47:57.498Z,2.13
2017-12-02T03:50:26.289Z,2.12
2017-12-02T03:52:54.455Z,2.10
2017-12-02T03:55:22.417Z,2.09
2017-12-02T03:57:50.205Z,2.08
2017-12-02T04:02:58.178Z,2.08
2017-12-02T04:05:26.262Z,2.09
2017-12-02T04:07:53.911Z,2.09
2017-12-02T04:10:23.587Z,2.09
2017-12-02T04:12:51.562Z,2.10
2017-12-02T04:15:20.172Z,2.12
2017-12-02T04:17:48.060Z,2.12
2017-12-02T04:20:15.632Z,2.12
2017-12-02T04:22:44.190Z,2.14
2017-12-02T04:25:13.596Z,2.15
2017-12-02T04:27:41.153Z,2.14
2017-12-02T04:30:09.399Z,2.13
2017-12-02T04:32:37.196Z,2.15
2017-12-02T04:35:05.039Z,2.19
2017-12-02T04:37:33.152Z,2.18
2017-12-02T04:40:00.775Z,2.18
2017-12-02T04:42:33.588Z,2.16
2017-12-02T04:45:02.096Z,2.14
2017-12-02T04:47:49.701Z,2.13
2017-12-02T04:50:17.946Z,2.13
2017-12-02T04:52:46.383Z,2.08
2017-12-02T04:55:14.440Z,2.07
2017-12-02T04:57:42.210Z,2.06
2017-12-02T05:00:10.556Z,2.05
2017-12-02T05:02:38.204Z,2.06
2017-12-02T05:05:06.047Z,2.07
2017-12-02T05:07:38.771Z,2.04
2017-12-02T05:10:08.322Z,2.06
2017-12-02T05:12:38.015Z,2.07
2017-12-02T05:15:05.629Z,2.13
2017-12-02T05:17:44.712Z,2.16
2017-12-02T05:20:13.236Z,2.08
2017-12-02T05:22:41.862Z,2.05
2017-12-02T05:25:11.439Z,2.05
2017-12-02T05:28:03.499Z,2.03
2017-12-02T05:30:31.998Z,2.01
2017-12-02T05:32:59.926Z,2.02
2017-12-02T05:35:28.264Z,2.06
2017-12-02T05:37:56.586Z,2.09
2017-12-02T05:40:24.590Z,2.10
2017-12-02T05:42:52.409Z,2.09
2017-12-02T05:45:20.659Z,2.08
2017-12-02T05:50:41.497Z,2.10
2017-12-02T05:53:09.717Z,2.06
2017-12-02T05:55:37.506Z,2.04
2017-12-02T05:58:24.490Z,2.06
2017-12-02T06:00:52.204Z,2.05
2017-12-02T06:03:21.298Z,2.06
2017-12-02T06:05:48.987Z,2.05
2017-12-02T06:08:16.577Z,2.05
2017-12-02T06:10:44.295Z,2.08
2017-12-02T06:13:11.781Z,2.07
2017-12-02T06:15:39.331Z,2.06
2017-12-02T06:18:06.929Z,2.05
2017-12-02T06:20:34.509Z,2.05
2017-12-02T06:23:02.051Z,2.05
2017-12-02T06:25:29.542Z,2.05
2017-12-02T06:27:56.972Z,2.07
2017-12-02T06:30:24.463Z,2.09
2017-12-02T06:32:51.923Z,2.10
2017-12-02T06:35:19.396Z,2.12
2017-12-02T06:40:39.691Z,2.11
2017-12-02T06:43:07.244Z,2.11
2017-12-02T06:45:34.834Z,2.13
2017-12-02T06:48:02.339Z,2.06
2017-12-02T06:50:30.176Z,2.01
2017-12-02T06:52:57.922Z,1.98
2017-12-02T06:55:26.513Z,1.94
2017-12-02T06:57:54.022Z,1.93
2017-12-02T07:00:21.499Z,1.88
2017-12-02T07:02:49.017Z,1.87
2017-12-02T07:05:16.617Z,1.87
2017-12-02T07:07:53.780Z,1.85
2017-12-02T07:10:21.324Z,1.86
2017-12-02T07:12:48.818Z,1.88
2017-12-02T07:15:16.293Z,1.90
2017-12-02T07:17:43.997Z,1.90
2017-12-02T07:20:12.315Z,1.89
2017-12-02T07:22:39.824Z,1.94
2017-12-02T07:25:07.380Z,1.91
2017-12-02T07:30:27.650Z,1.86
2017-12-02T07:32:55.485Z,1.88
2017-12-02T07:35:23.003Z,1.92
2017-12-02T07:37:50.801Z,1.95
2017-12-02T07:40:18.423Z,1.98
2017-12-02T07:42:46.806Z,2.00
2017-12-02T07:45:14.333Z,2.01
2017-12-02T07:50:14.579Z,2.10
2017-12-02T07:52:42.033Z,2.13
2017-12-02T07:55:09.623Z,2.17
2017-12-02T07:57:37.202Z,2.24
2017-12-02T08:00:04.782Z,2.27
2017-12-02T08:02:32.285Z,2.31
2017-12-02T08:04:59.737Z,2.35
2017-12-02T08:09:59.867Z,2.51
2017-12-02T08:12:27.371Z,2.55
2017-12-02T08:14:54.853Z,2.60
2017-12-02T08:17:22.338Z,2.65
2017-12-02T08:19:49.821Z,2.68
2017-12-02T08:22:17.363Z,2.72
2017-12-02T08:24:44.825Z,2.80
2017-12-02T08:27:12.344Z,2.85
2017-12-02T08:29:39.885Z,2.82
2017-12-02T08:32:07.495Z,2.80
2017-12-02T08:34:35.024Z,2.80
2017-12-02T08:37:02.515Z,2.84
2017-12-02T08:42:02.902Z,2.75
2017-12-02T08:44:30.406Z,2.76
2017-12-02T08:46:57.888Z,2.86
2017-12-02T08:49:25.404Z,2.89
2017-12-02T08:51:52.877Z,2.87
2017-12-02T08:54:20.392Z,2.94
2017-12-02T08:56:47.893Z,2.96
2017-12-02T08:59:15.324Z,2.93
2017-12-02T09:01:42.813Z,2.93
2017-12-02T09:04:10.257Z,2.98
2017-12-02T09:06:37.747Z,3.02
2017-12-02T09:09:05.503Z,3.10
2017-12-02T09:11:33.002Z,3.19
2017-12-02T09:14:00.520Z,3.24
2017-12-02T09:16:27.996Z,3.28
2017-12-02T09:18:55.550Z,3.31
2017-12-02T09:21:23.050Z,3.30
2017-12-02T09:23:50.596Z,3.33
2017-12-02T09:26:18.155Z,3.38
2017-12-02T09:28:45.755Z,3.38
2017-12-02T09:31:13.274Z,3.45
2017-12-02T09:33:41.013Z,3.57
2017-12-02T09:36:08.478Z,3.58
2017-12-02T09:38:35.991Z,3.57
2017-12-02T09:41:04.325Z,3.66
2017-12-02T09:43:31.787Z,3.64
2017-12-02T09:48:32.195Z,3.70
2017-12-02T09:51:00.985Z,3.68
2017-12-02T09:53:28.456Z,3.65
2017-12-02T09:55:55.961Z,3.67
2017-12-02T09:58:23.503Z,3.79
2017-12-02T10:00:50.949Z,3.88
2017-12-02T10:03:18.460Z,3.90
2017-12-02T10:08:32.942Z,3.80
2017-12-02T10:11:00.422Z,3.75
2017-12-02T10:13:28.017Z,3.75
2017-12-02T10:15:55.561Z,3.84
2017-12-02T10:18:23.051Z,3.87
2017-12-02T10:20:50.528Z,3.86
2017-12-02T10:23:18.053Z,3.95
2017-12-02T10:25:45.635Z,3.90
2017-12-02T10:28:13.149Z,3.95
2017-12-02T10:30:40.718Z,4.01
2017-12-02T10:33:08.290Z,3.97
2017-12-02T10:35:35.801Z,4.00
2017-12-02T10:38:03.282Z,3.99
2017-12-02T10:40:30.750Z,4.03
2017-12-02T10:42:58.225Z,4.06
2017-12-02T10:45:25.708Z,3.99
2017-12-02T10:47:53.193Z,3.94
2017-12-02T10:50:20.681Z,3.97
2017-12-02T10:52:48.124Z,4.01
2017-12-02T10:55:16.587Z,4.09
2017-12-02T10:57:53.717Z,4.10
2017-12-02T11:00:21.309Z,4.10
2017-12-02T11:02:48.827Z,4.11
2017-12-02T11:05:16.416Z,4.08
2017-12-02T11:07:43.946Z,4.13
2017-12-02T11:10:11.464Z,4.16
2017-12-02T11:12:38.994Z,4.28
2017-12-02T11:15:06.713Z,4.37
2017-12-02T11:17:34.328Z,4.36
2017-12-02T11:20:02.010Z,4.40
2017-12-02T11:22:30.539Z,4.49
2017-12-02T11:24:58.062Z,4.60
2017-12-02T11:27:25.574Z,4.63
2017-12-02T11:29:53.121Z,4.67
2017-12-02T11:32:20.681Z,4.60
2017-12-02T11:34:48.199Z,4.60
2017-12-02T11:37:15.698Z,4.64
2017-12-02T11:39:43.160Z,4.70
2017-12-02T11:42:10.696Z,4.70
2017-12-02T11:44:38.160Z,4.75
2017-12-02T11:47:05.706Z,4.68
2017-12-02T11:49:33.399Z,4.67
2017-12-02T11:52:00.960Z,4.68
2017-12-02T11:54:28.462Z,4.63
2017-12-02T11:56:55.970Z,4.64
2017-12-02T11:59:23.507Z,4.62
2017-12-02T12:01:50.970Z,4.64
2017-12-02T12:04:18.494Z,4.63
2017-12-02T12:06:46.444Z,4.56
2017-12-02T12:09:19.179Z,4.51
2017-12-02T12:11:46.986Z,4.57
2017-12-02T12:14:14.490Z,4.62
2017-12-02T12:16:42.201Z,4.65
2017-12-02T12:19:09.724Z,4.66
2017-12-02T12:21:37.270Z,4.66
2017-12-02T12:24:04.841Z,4.61
2017-12-02T12:26:32.725Z,4.52
2017-12-02T12:29:00.331Z,4.44
2017-12-02T12:31:27.812Z,4.42
2017-12-02T12:33:55.290Z,4.43
2017-12-02T12:36:22.801Z,4.42
2017-12-02T12:38:51.537Z,4.29
2017-12-02T12:41:19.192Z,4.25
2017-12-02T12:43:46.861Z,4.33
2017-12-02T12:46:14.443Z,4.38
2017-12-02T12:48:41.994Z,4.43
2017-12-02T12:51:09.578Z,4.59
2017-12-02T12:53:37.467Z,4.65
2017-12-02T12:56:05.033Z,4.65
2017-12-02T12:58:32.495Z,4.67
2017-12-02T13:01:00.124Z,4.67
2017-12-02T13:03:28.101Z,4.63
2017-12-02T13:05:55.678Z,4.65
2017-12-02T13:08:37.455Z,4.64
2017-12-02T13:11:05.729Z,4.59
2017-12-02T13:13:33.445Z,4.58
2017-12-02T13:16:00.997Z,4.56
2017-12-02T13:18:28.626Z,4.50
2017-12-02T13:20:56.293Z,4.47
2017-12-02T13:23:24.021Z,4.41
2017-12-02T13:25:51.709Z,4.28
2017-12-02T13:28:33.515Z,4.18
2017-12-02T13:31:01.062Z,4.18
2017-12-02T13:33:28.555Z,4.17
2017-12-02T13:35:56.084Z,4.19
2017-12-02T13:38:23.616Z,4.13
2017-12-02T13:40:51.091Z,4.14
2017-12-02T13:43:18.636Z,4.12
2017-12-02T13:45:46.125Z,4.02
2017-12-02T13:48:13.624Z,4.03
2017-12-02T13:50:41.119Z,3.99
2017-12-02T13:53:08.670Z,4.00
2017-12-02T13:55:36.226Z,3.92
2017-12-02T13:58:04.774Z,3.92
2017-12-02T14:00:33.004Z,3.90
2017-12-02T14:03:00.715Z,3.92
2017-12-02T14:05:29.136Z,3.93
2017-12-02T14:07:56.669Z,3.93
2017-12-02T14:10:24.212Z,3.98
2017-12-02T14:12:51.755Z,3.91
2017-12-02T14:15:19.275Z,3.85
2017-12-02T14:17:46.757Z,3.81
2017-12-02T14:20:14.837Z,3.79
2017-12-02T14:22:42.573Z,3.80
2017-12-02T14:25:10.113Z,3.77
2017-12-02T14:27:37.904Z,3.76
2017-12-02T14:30:06.348Z,3.73
2017-12-02T14:32:33.813Z,3.71
2017-12-02T14:35:02.091Z,3.69
2017-12-02T14:40:23.251Z,3.71
2017-12-02T14:42:50.777Z,3.70
2017-12-02T14:45:18.279Z,3.70
2017-12-02T14:50:38.168Z,3.70
2017-12-02T14:53:05.806Z,3.68
2017-12-02T14:55:33.296Z,3.68
2017-12-02T14:58:05.828Z,3.69
2017-12-02T15:00:33.295Z,3.69
2017-12-02T15:03:00.844Z,3.68
2017-12-02T15:05:28.316Z,3.67
2017-12-02T15:07:55.890Z,3.68
2017-12-02T15:10:23.432Z,3.69
2017-12-02T15:12:51.137Z,3.72
2017-12-02T15:15:18.766Z,3.73
2017-12-02T15:17:47.184Z,3.75
2017-12-02T15:20:18.861Z,3.72
2017-12-02T15:22:46.445Z,3.74
2017-12-02T15:25:18.027Z,3.72
2017-12-02T15:27:46.667Z,3.70
2017-12-02T15:30:15.243Z,3.68
2017-12-02T15:32:43.563Z,3.65
2017-12-02T15:35:11.923Z,3.66
2017-12-02T15:37:41.485Z,3.67
2017-12-02T15:40:09.152Z,3.67
2017-12-02T15:42:36.952Z,3.67
2017-12-02T15:45:04.752Z,3.67
2017-12-02T15:53:18.410Z,3.66
2017-12-02T15:55:46.051Z,3.66
2017-12-02T16:00:47.029Z,3.75
2017-12-02T16:03:14.640Z,3.79
2017-12-02T16:05:42.770Z,3.83
2017-12-02T16:08:10.318Z,3.85
2017-12-02T16:10:37.841Z,3.76
2017-12-02T16:13:05.428Z,3.79
2017-12-02T16:15:32.882Z,3.74
2017-12-02T16:18:00.619Z,3.70
2017-12-02T16:20:28.238Z,3.71
2017-12-02T16:22:57.096Z,3.69
2017-12-02T16:25:24.559Z,3.68
2017-12-02T16:27:57.281Z,3.68
2017-12-02T16:30:24.905Z,3.70
2017-12-02T16:32:52.348Z,3.71
2017-12-02T16:35:20.043Z,3.69
2017-12-02T16:37:47.987Z,3.71
2017-12-02T16:40:15.626Z,3.72
2017-12-02T16:42:43.983Z,3.75
2017-12-02T16:45:11.752Z,3.73
2017-12-02T16:47:39.448Z,3.71
2017-12-02T16:50:07.014Z,3.70
2017-12-02T16:52:35.327Z,3.67
2017-12-02T16:55:03.679Z,3.67
2017-12-02T16:57:31.319Z,3.65
2017-12-02T16:59:58.796Z,3.63
2017-12-02T17:02:26.289Z,3.63
2017-12-02T17:04:55.265Z,3.66
2017-12-02T17:07:37.023Z,3.62
2017-12-02T17:10:04.536Z,3.63
2017-12-02T17:12:32.230Z,3.63
2017-12-02T17:14:59.789Z,3.61
2017-12-02T17:17:27.359Z,3.60
2017-12-02T17:19:56.608Z,3.59
2017-12-02T17:22:24.074Z,3.60
2017-12-02T17:24:51.850Z,3.58
2017-12-02T17:27:21.095Z,3.56
2017-12-02T17:29:48.679Z,3.57
2017-12-02T17:32:16.245Z,3.57
2017-12-02T17:34:44.915Z,3.59
2017-12-02T17:37:15.191Z,3.50
2017-12-02T17:39:43.812Z,3.52
2017-12-02T17:42:11.602Z,3.51
2017-12-02T17:44:39.150Z,3.51
2017-12-02T17:47:09.858Z,3.53
2017-12-02T17:49:37.367Z,3.53
2017-12-02T17:52:04.851Z,3.49
2017-12-02T17:54:32.306Z,3.45
2017-12-02T17:56:59.763Z,3.47
2017-12-02T17:59:27.888Z,3.55
2017-12-02T18:01:59.650Z,3.53
2017-12-02T18:04:28.179Z,3.49
2017-12-02T18:06:57.208Z,3.45
2017-12-02T18:12:10.410Z,3.39
2017-12-02T18:14:41.519Z,3.37
2017-12-02T18:17:11.642Z,3.40
2017-12-02T18:19:42.726Z,3.35
2017-12-02T18:22:27.120Z,3.30
2017-12-02T18:24:57.955Z,3.28
2017-12-02T18:27:26.657Z,3.26
2017-12-02T18:29:56.973Z,3.22
2017-12-02T18:32:25.634Z,3.22
2017-12-02T18:34:54.957Z,3.22
2017-12-02T18:40:28.049Z,3.17
2017-12-02T18:42:58.120Z,3.16
2017-12-02T18:45:26.691Z,3.15
2017-12-02T18:48:00.522Z,3.13
2017-12-02T18:55:50.696Z,3.05
2017-12-02T18:58:25.345Z,3.04
2017-12-02T19:08:01.319Z,2.98
2017-12-02T19:10:38.941Z,3.01
2017-12-02T19:13:07.740Z,2.99
2017-12-02T19:15:37.910Z,2.98
2017-12-02T19:18:05.491Z,3.01
2017-12-02T19:20:33.751Z,3.01
2017-12-02T19:23:01.921Z,3.01
2017-12-02T19:25:29.869Z,3.03
2017-12-02T19:28:11.611Z,3.00
2017-12-02T19:30:39.069Z,2.95
2017-12-02T19:33:07.200Z,2.91
2017-12-02T19:35:34.658Z,2.87
2017-12-02T19:38:02.902Z,2.84
2017-12-02T19:40:30.798Z,2.83
2017-12-02T19:42:58.365Z,2.83
2017-12-02T19:45:25.874Z,2.80
2017-12-02T19:47:53.421Z,2.80
2017-12-02T19:50:22.807Z,2.80
2017-12-02T19:52:50.981Z,2.76
2017-12-02T19:55:18.482Z,2.77
2017-12-02T19:57:46.189Z,2.75
2017-12-02T20:00:15.443Z,2.72
2017-12-02T20:02:43.111Z,2.69
2017-12-02T20:05:10.764Z,2.68
2017-12-02T20:07:47.996Z,2.64
2017-12-02T20:12:52.079Z,2.53
2017-12-02T20:15:21.492Z,2.54
2017-12-02T20:17:49.213Z,2.52
2017-12-02T20:20:17.343Z,2.52
2017-12-02T20:22:44.976Z,2.50
2017-12-02T20:25:13.126Z,2.51
2017-12-02T20:27:59.903Z,2.52
2017-12-02T20:30:27.390Z,2.51
2017-12-02T20:32:54.860Z,2.51
2017-12-02T20:35:22.333Z,2.52
2017-12-02T20:37:50.264Z,2.53
2017-12-02T20:40:17.760Z,2.51
2017-12-02T20:42:45.497Z,2.47
2017-12-02T20:45:13.691Z,2.47
2017-12-02T20:47:41.477Z,2.45
2017-12-02T20:50:09.213Z,2.46
2017-12-02T20:52:36.791Z,2.49
2017-12-02T20:55:04.330Z,2.51
2017-12-02T20:57:42.600Z,2.51
2017-12-02T21:00:12.110Z,2.46
2017-12-02T21:02:39.925Z,2.45
2017-12-02T21:05:07.397Z,2.43
2017-12-02T21:10:51.030Z,2.42
2017-12-02T21:13:18.956Z,2.44
2017-12-02T21:15:48.207Z,2.45
2017-12-02T21:18:15.687Z,2.38
2017-12-02T21:20:43.232Z,2.36
2017-12-02T21:23:11.173Z,2.35
2017-12-02T21:25:38.859Z,2.35
2017-12-02T21:28:07.424Z,2.35
2017-12-02T21:30:35.467Z,2.37
2017-12-02T21:33:04.204Z,2.34
2017-12-02T21:35:31.808Z,2.27
2017-12-02T21:37:59.269Z,2.23
2017-12-02T21:40:26.752Z,2.22
2017-12-02T21:42:54.286Z,2.17
2017-12-02T21:45:23.595Z,2.16
2017-12-02T21:47:51.308Z,2.18
2017-12-02T21:50:18.809Z,2.13
2017-12-02T21:52:46.304Z,2.11
2017-12-02T21:55:13.737Z,2.06
2017-12-02T21:57:41.280Z,2.04
2017-12-02T22:00:08.933Z,2.04
2017-12-02T22:02:36.913Z,2.10
2017-12-02T22:05:04.702Z,2.11
2017-12-02T22:07:32.326Z,2.13
2017-12-02T22:10:00.119Z,2.11
2017-12-02T22:12:27.836Z,2.09
2017-12-02T22:14:56.363Z,2.07
2017-12-02T22:17:23.884Z,2.08
2017-12-02T22:19:52.199Z,2.08
2017-12-02T22:22:19.737Z,2.12
2017-12-02T22:24:47.242Z,2.04
2017-12-02T22:27:14.749Z,2.06
2017-12-02T22:29:42.482Z,2.05
2017-12-02T22:32:10.026Z,2.04
2017-12-02T22:34:37.596Z,1.98
2017-12-02T22:37:05.123Z,1.97
2017-12-02T22:39:32.602Z,1.92
2017-12-02T22:42:00.372Z,1.86
2017-12-02T22:44:27.930Z,1.84
2017-12-02T22:46:55.503Z,1.90
2017-12-02T22:49:23.055Z,1.89
2017-12-02T22:51:50.576Z,1.89
2017-12-02T22:54:18.164Z,1.86
2017-12-02T22:56:45.756Z,1.82
2017-12-02T22:59:18.267Z,1.82
2017-12-02T23:01:45.841Z,1.83
2017-12-02T23:04:13.563Z,1.82
2017-12-02T23:06:41.040Z,1.81
2017-12-02T23:09:08.973Z,1.80
2017-12-02T23:11:36.473Z,1.81
2017-12-02T23:14:04.009Z,1.83
2017-12-02T23:16:31.594Z,1.82
2017-12-02T23:18:59.149Z,1.82
2017-12-02T23:21:26.845Z,1.82
2017-12-02T23:23:54.778Z,1.83
2017-12-02T23:26:22.255Z,1.82
2017-12-02T23:28:49.693Z,1.76
2017-12-02T23:31:17.174Z,1.75
2017-12-02T23:33:44.602Z,1.72
2017-12-02T23:36:12.055Z,1.73
2017-12-02T23:41:32.299Z,1.66
2017-12-02T23:43:59.823Z,1.62
2017-12-02T23:46:27.537Z,1.56
2017-12-02T23:48:55.879Z,1.55
2017-12-02T23:51:23.309Z,1.57
2017-12-02T23:53:50.864Z,1.57
2017-12-02T23:56:18.328Z,1.61
2017-12-02T23:58:45.846Z,1.61
